sensor_id;sensor_type;location;lat;lon;timestamp;P1;durP1;ratioP1;P2;durP2;ratioP2
7813;SDS011;3952;48.364;16.022;2023-11-19T00:00:19;8.77;;;8.07;;
7813;SDS011;3952;48.364;16.022;2023-11-19T00:02:46;8.83;;;8.03;;
7813;SDS011;3952;48.364;16.022;2023-11-19T00:05:14;9.50;;;8.60;;
7813;SDS011;3952;48.364;16.022;2023-11-19T00:07:41;12.27;;;9.50;;
7813;SDS011;3952;48.364;16.022;2023-11-19T00:10:11;10.63;;;9.60;;
7813;SDS011;3952;48.364;16.022;2023-11-19T00:12:39;11.03;;;8.83;;
7813;SDS011;3952;48.364;16.022;2023-11-19T00:15:08;10.50;;;8.57;;
7813;SDS011;3952;48.364;16.022;2023-11-19T00:17:36;10.30;;;9.40;;
7813;SDS011;3952;48.364;16.022;2023-11-19T00:20:06;9.93;;;9.03;;
7813;SDS011;3952;48.364;16.022;2023-11-19T00:22:34;9.57;;;8.70;;
7813;SDS011;3952;48.364;16.022;2023-11-19T00:25:02;9.37;;;8.43;;
7813;SDS011;3952;48.364;16.022;2023-11-19T00:27:31;8.60;;;7.90;;
7813;SDS011;3952;48.364;16.022;2023-11-19T00:29:58;8.60;;;7.60;;
7813;SDS011;3952;48.364;16.022;2023-11-19T00:32:26;8.57;;;7.93;;
7813;SDS011;3952;48.364;16.022;2023-11-19T00:34:53;8.20;;;7.60;;
7813;SDS011;3952;48.364;16.022;2023-11-19T00:37:20;10.03;;;9.03;;
7813;SDS011;3952;48.364;16.022;2023-11-19T00:39:47;8.73;;;7.93;;
7813;SDS011;3952;48.364;16.022;2023-11-19T00:42:15;9.50;;;8.60;;
7813;SDS011;3952;48.364;16.022;2023-11-19T00:44:44;10.03;;;8.67;;
7813;SDS011;3952;48.364;16.022;2023-11-19T00:47:11;9.43;;;8.67;;
7813;SDS011;3952;48.364;16.022;2023-11-19T00:49:38;10.33;;;9.43;;
7813;SDS011;3952;48.364;16.022;2023-11-19T00:52:06;8.50;;;7.70;;
7813;SDS011;3952;48.364;16.022;2023-11-19T00:54:33;9.07;;;8.17;;
7813;SDS011;3952;48.364;16.022;2023-11-19T00:57:00;9.63;;;8.73;;
7813;SDS011;3952;48.364;16.022;2023-11-19T00:59:27;9.47;;;8.57;;
7813;SDS011;3952;48.364;16.022;2023-11-19T01:01:56;9.63;;;8.73;;
7813;SDS011;3952;48.364;16.022;2023-11-19T01:04:24;8.87;;;8.07;;
7813;SDS011;3952;48.364;16.022;2023-11-19T01:06:51;8.23;;;7.53;;
7813;SDS011;3952;48.364;16.022;2023-11-19T01:09:19;8.40;;;7.80;;
7813;SDS011;3952;48.364;16.022;2023-11-19T01:11:46;9.60;;;8.70;;
7813;SDS011;3952;48.364;16.022;2023-11-19T01:14:14;9.53;;;8.73;;
7813;SDS011;3952;48.364;16.022;2023-11-19T01:16:42;10.03;;;9.03;;
7813;SDS011;3952;48.364;16.022;2023-11-19T01:19:11;10.20;;;9.17;;
7813;SDS011;3952;48.364;16.022;2023-11-19T01:21:38;9.97;;;9.07;;
7813;SDS011;3952;48.364;16.022;2023-11-19T01:24:06;9.67;;;8.87;;
7813;SDS011;3952;48.364;16.022;2023-11-19T01:26:35;8.60;;;7.80;;
7813;SDS011;3952;48.364;16.022;2023-11-19T01:29:02;8.80;;;8.07;;
7813;SDS011;3952;48.364;16.022;2023-11-19T01:31:30;7.70;;;7.03;;
7813;SDS011;3952;48.364;16.022;2023-11-19T01:33:59;9.03;;;8.10;;
7813;SDS011;3952;48.364;16.022;2023-11-19T01:36:27;8.33;;;7.53;;
7813;SDS011;3952;48.364;16.022;2023-11-19T01:38:55;7.40;;;6.90;;
7813;SDS011;3952;48.364;16.022;2023-11-19T01:41:22;9.83;;;7.43;;
7813;SDS011;3952;48.364;16.022;2023-11-19T01:43:50;8.03;;;7.40;;
7813;SDS011;3952;48.364;16.022;2023-11-19T01:46:17;7.47;;;6.90;;
7813;SDS011;3952;48.364;16.022;2023-11-19T01:48:45;8.70;;;7.83;;
7813;SDS011;3952;48.364;16.022;2023-11-19T01:51:13;7.93;;;7.27;;
7813;SDS011;3952;48.364;16.022;2023-11-19T01:53:43;8.27;;;7.57;;
7813;SDS011;3952;48.364;16.022;2023-11-19T01:56:11;8.13;;;7.53;;
7813;SDS011;3952;48.364;16.022;2023-11-19T01:58:41;8.30;;;7.70;;
7813;SDS011;3952;48.364;16.022;2023-11-19T02:01:10;8.77;;;7.97;;
7813;SDS011;3952;48.364;16.022;2023-11-19T02:03:39;9.17;;;8.47;;
7813;SDS011;3952;48.364;16.022;2023-11-19T02:06:07;18.83;;;15.70;;
7813;SDS011;3952;48.364;16.022;2023-11-19T02:08:35;17.10;;;12.77;;
7813;SDS011;3952;48.364;16.022;2023-11-19T02:11:05;11.80;;;10.60;;
7813;SDS011;3952;48.364;16.022;2023-11-19T02:13:33;9.87;;;9.07;;
7813;SDS011;3952;48.364;16.022;2023-11-19T02:16:03;10.57;;;9.67;;
7813;SDS011;3952;48.364;16.022;2023-11-19T02:18:33;10.03;;;9.03;;
7813;SDS011;3952;48.364;16.022;2023-11-19T02:21:00;10.40;;;9.40;;
7813;SDS011;3952;48.364;16.022;2023-11-19T02:23:28;11.63;;;10.13;;
7813;SDS011;3952;48.364;16.022;2023-11-19T02:26:02;11.97;;;10.60;;
7813;SDS011;3952;48.364;16.022;2023-11-19T02:28:36;14.60;;;11.00;;
7813;SDS011;3952;48.364;16.022;2023-11-19T02:31:03;11.10;;;10.03;;
7813;SDS011;3952;48.364;16.022;2023-11-19T02:33:34;9.47;;;8.67;;
7813;SDS011;3952;48.364;16.022;2023-11-19T02:36:02;10.30;;;9.30;;
7813;SDS011;3952;48.364;16.022;2023-11-19T02:38:30;9.90;;;9.07;;
7813;SDS011;3952;48.364;16.022;2023-11-19T02:40:57;9.73;;;8.83;;
7813;SDS011;3952;48.364;16.022;2023-11-19T02:43:24;10.40;;;9.40;;
7813;SDS011;3952;48.364;16.022;2023-11-19T02:45:54;10.57;;;9.57;;
7813;SDS011;3952;48.364;16.022;2023-11-19T02:48:21;10.20;;;9.40;;
7813;SDS011;3952;48.364;16.022;2023-11-19T02:50:48;10.17;;;9.30;;
7813;SDS011;3952;48.364;16.022;2023-11-19T02:53:17;10.33;;;9.53;;
7813;SDS011;3952;48.364;16.022;2023-11-19T02:55:47;10.50;;;9.53;;
7813;SDS011;3952;48.364;16.022;2023-11-19T02:58:15;10.07;;;9.27;;
7813;SDS011;3952;48.364;16.022;2023-11-19T03:00:48;10.87;;;9.93;;
7813;SDS011;3952;48.364;16.022;2023-11-19T03:03:23;9.97;;;9.07;;
7813;SDS011;3952;48.364;16.022;2023-11-19T03:05:54;10.73;;;9.83;;
7813;SDS011;3952;48.364;16.022;2023-11-19T03:08:21;11.23;;;10.27;;
7813;SDS011;3952;48.364;16.022;2023-11-19T03:10:48;10.13;;;9.27;;
7813;SDS011;3952;48.364;16.022;2023-11-19T03:13:16;11.30;;;10.40;;
7813;SDS011;3952;48.364;16.022;2023-11-19T03:15:43;10.90;;;9.90;;
7813;SDS011;3952;48.364;16.022;2023-11-19T03:18:09;11.37;;;10.30;;
7813;SDS011;3952;48.364;16.022;2023-11-19T03:20:38;11.90;;;10.90;;
7813;SDS011;3952;48.364;16.022;2023-11-19T03:23:05;11.97;;;10.97;;
7813;SDS011;3952;48.364;16.022;2023-11-19T03:25:32;12.37;;;11.37;;
7813;SDS011;3952;48.364;16.022;2023-11-19T03:28:01;12.00;;;10.80;;
7813;SDS011;3952;48.364;16.022;2023-11-19T03:30:29;11.57;;;10.57;;
7813;SDS011;3952;48.364;16.022;2023-11-19T03:32:57;11.60;;;10.60;;
7813;SDS011;3952;48.364;16.022;2023-11-19T03:35:26;11.83;;;10.73;;
7813;SDS011;3952;48.364;16.022;2023-11-19T03:37:55;12.03;;;10.83;;
7813;SDS011;3952;48.364;16.022;2023-11-19T03:40:22;12.97;;;11.50;;
7813;SDS011;3952;48.364;16.022;2023-11-19T03:42:50;12.80;;;11.53;;
7813;SDS011;3952;48.364;16.022;2023-11-19T03:45:17;13.73;;;12.30;;
7813;SDS011;3952;48.364;16.022;2023-11-19T03:47:44;12.77;;;11.57;;
7813;SDS011;3952;48.364;16.022;2023-11-19T03:50:11;13.23;;;11.93;;
7813;SDS011;3952;48.364;16.022;2023-11-19T03:52:41;12.40;;;11.23;;
7813;SDS011;3952;48.364;16.022;2023-11-19T03:55:10;14.87;;;12.13;;
7813;SDS011;3952;48.364;16.022;2023-11-19T03:57:37;13.20;;;12.00;;
7813;SDS011;3952;48.364;16.022;2023-11-19T04:00:05;13.47;;;11.97;;
7813;SDS011;3952;48.364;16.022;2023-11-19T04:02:35;12.13;;;11.03;;
7813;SDS011;3952;48.364;16.022;2023-11-19T04:05:01;14.13;;;12.60;;
7813;SDS011;3952;48.364;16.022;2023-11-19T04:07:30;11.87;;;10.77;;
7813;SDS011;3952;48.364;16.022;2023-11-19T04:09:58;11.50;;;10.33;;
7813;SDS011;3952;48.364;16.022;2023-11-19T04:12:27;12.13;;;11.00;;
7813;SDS011;3952;48.364;16.022;2023-11-19T04:14:54;11.33;;;10.33;;
7813;SDS011;3952;48.364;16.022;2023-11-19T04:17:21;11.93;;;10.80;;
7813;SDS011;3952;48.364;16.022;2023-11-19T04:19:49;10.60;;;9.80;;
7813;SDS011;3952;48.364;16.022;2023-11-19T04:22:17;11.10;;;10.10;;
7813;SDS011;3952;48.364;16.022;2023-11-19T04:24:44;10.93;;;9.97;;
7813;SDS011;3952;48.364;16.022;2023-11-19T04:27:11;11.23;;;10.23;;
7813;SDS011;3952;48.364;16.022;2023-11-19T04:29:40;10.67;;;9.77;;
7813;SDS011;3952;48.364;16.022;2023-11-19T04:32:07;25.20;;;16.63;;
7813;SDS011;3952;48.364;16.022;2023-11-19T04:34:34;23.30;;;15.73;;
7813;SDS011;3952;48.364;16.022;2023-11-19T04:37:02;20.47;;;14.97;;
7813;SDS011;3952;48.364;16.022;2023-11-19T04:39:30;41.33;;;24.57;;
7813;SDS011;3952;48.364;16.022;2023-11-19T04:41:57;43.70;;;27.30;;
7813;SDS011;3952;48.364;16.022;2023-11-19T04:44:24;14.33;;;12.30;;
7813;SDS011;3952;48.364;16.022;2023-11-19T04:46:53;13.17;;;11.93;;
7813;SDS011;3952;48.364;16.022;2023-11-19T04:49:20;13.97;;;12.67;;
7813;SDS011;3952;48.364;16.022;2023-11-19T04:51:47;21.63;;;14.77;;
7813;SDS011;3952;48.364;16.022;2023-11-19T04:54:15;16.80;;;13.87;;
7813;SDS011;3952;48.364;16.022;2023-11-19T04:56:44;12.60;;;11.33;;
7813;SDS011;3952;48.364;16.022;2023-11-19T04:59:12;11.53;;;10.50;;
7813;SDS011;3952;48.364;16.022;2023-11-19T05:01:39;12.70;;;11.57;;
7813;SDS011;3952;48.364;16.022;2023-11-19T05:04:08;12.67;;;11.33;;
7813;SDS011;3952;48.364;16.022;2023-11-19T05:06:36;10.90;;;10.00;;
7813;SDS011;3952;48.364;16.022;2023-11-19T05:09:03;11.70;;;10.80;;
7813;SDS011;3952;48.364;16.022;2023-11-19T05:11:32;12.10;;;11.00;;
7813;SDS011;3952;48.364;16.022;2023-11-19T05:14:02;11.47;;;10.27;;
7813;SDS011;3952;48.364;16.022;2023-11-19T05:16:30;13.07;;;11.60;;
7813;SDS011;3952;48.364;16.022;2023-11-19T05:18:57;13.70;;;12.23;;
7813;SDS011;3952;48.364;16.022;2023-11-19T05:21:26;11.80;;;10.63;;
7813;SDS011;3952;48.364;16.022;2023-11-19T05:23:53;11.37;;;10.20;;
7813;SDS011;3952;48.364;16.022;2023-11-19T05:26:21;11.03;;;10.03;;
7813;SDS011;3952;48.364;16.022;2023-11-19T05:28:49;10.57;;;9.67;;
7813;SDS011;3952;48.364;16.022;2023-11-19T05:31:17;9.40;;;8.60;;
7813;SDS011;3952;48.364;16.022;2023-11-19T05:33:44;9.67;;;8.73;;
7813;SDS011;3952;48.364;16.022;2023-11-19T05:36:12;9.53;;;8.73;;
7813;SDS011;3952;48.364;16.022;2023-11-19T05:38:41;9.53;;;8.83;;
7813;SDS011;3952;48.364;16.022;2023-11-19T05:41:09;9.40;;;8.60;;
7813;SDS011;3952;48.364;16.022;2023-11-19T05:43:36;9.13;;;8.43;;
7813;SDS011;3952;48.364;16.022;2023-11-19T05:46:05;8.70;;;7.97;;
7813;SDS011;3952;48.364;16.022;2023-11-19T05:48:34;9.10;;;8.40;;
7813;SDS011;3952;48.364;16.022;2023-11-19T05:51:01;8.63;;;8.03;;
7813;SDS011;3952;48.364;16.022;2023-11-19T05:53:28;9.10;;;8.50;;
7813;SDS011;3952;48.364;16.022;2023-11-19T05:55:57;9.63;;;8.83;;
7813;SDS011;3952;48.364;16.022;2023-11-19T05:58:29;10.60;;;9.50;;
7813;SDS011;3952;48.364;16.022;2023-11-19T06:00:57;9.70;;;8.80;;
7813;SDS011;3952;48.364;16.022;2023-11-19T06:03:26;8.93;;;8.13;;
7813;SDS011;3952;48.364;16.022;2023-11-19T06:05:53;9.90;;;9.10;;
7813;SDS011;3952;48.364;16.022;2023-11-19T06:08:20;9.70;;;8.90;;
7813;SDS011;3952;48.364;16.022;2023-11-19T06:10:47;9.80;;;8.83;;
7813;SDS011;3952;48.364;16.022;2023-11-19T06:13:17;9.40;;;8.60;;
7813;SDS011;3952;48.364;16.022;2023-11-19T06:15:44;8.80;;;8.20;;
7813;SDS011;3952;48.364;16.022;2023-11-19T06:18:12;10.57;;;9.60;;
7813;SDS011;3952;48.364;16.022;2023-11-19T06:20:40;10.13;;;9.23;;
7813;SDS011;3952;48.364;16.022;2023-11-19T06:23:07;10.13;;;9.23;;
7813;SDS011;3952;48.364;16.022;2023-11-19T06:25:35;9.47;;;8.77;;
7813;SDS011;3952;48.364;16.022;2023-11-19T06:28:02;10.00;;;9.10;;
7813;SDS011;3952;48.364;16.022;2023-11-19T06:30:31;10.10;;;9.20;;
7813;SDS011;3952;48.364;16.022;2023-11-19T06:32:58;10.53;;;9.53;;
7813;SDS011;3952;48.364;16.022;2023-11-19T06:35:25;10.27;;;9.47;;
7813;SDS011;3952;48.364;16.022;2023-11-19T06:37:55;9.67;;;8.87;;
7813;SDS011;3952;48.364;16.022;2023-11-19T06:40:22;11.07;;;10.07;;
7813;SDS011;3952;48.364;16.022;2023-11-19T06:42:50;10.33;;;9.50;;
7813;SDS011;3952;48.364;16.022;2023-11-19T06:45:17;9.67;;;8.87;;
7813;SDS011;3952;48.364;16.022;2023-11-19T06:47:47;10.47;;;9.53;;
7813;SDS011;3952;48.364;16.022;2023-11-19T06:50:14;11.13;;;10.13;;
7813;SDS011;3952;48.364;16.022;2023-11-19T06:52:41;10.83;;;9.80;;
7813;SDS011;3952;48.364;16.022;2023-11-19T06:55:09;10.93;;;9.90;;
7813;SDS011;3952;48.364;16.022;2023-11-19T06:57:36;10.83;;;9.93;;
7813;SDS011;3952;48.364;16.022;2023-11-19T07:00:04;11.53;;;10.33;;
7813;SDS011;3952;48.364;16.022;2023-11-19T07:02:33;11.03;;;10.00;;
7813;SDS011;3952;48.364;16.022;2023-11-19T07:05:02;10.63;;;9.70;;
7813;SDS011;3952;48.364;16.022;2023-11-19T07:07:30;10.97;;;10.10;;
7813;SDS011;3952;48.364;16.022;2023-11-19T07:09:58;11.93;;;10.83;;
7813;SDS011;3952;48.364;16.022;2023-11-19T07:12:25;10.77;;;9.87;;
7813;SDS011;3952;48.364;16.022;2023-11-19T07:14:53;11.37;;;10.27;;
7813;SDS011;3952;48.364;16.022;2023-11-19T07:17:21;11.80;;;10.70;;
7813;SDS011;3952;48.364;16.022;2023-11-19T07:19:49;12.07;;;11.00;;
7813;SDS011;3952;48.364;16.022;2023-11-19T07:22:18;12.13;;;11.00;;
7813;SDS011;3952;48.364;16.022;2023-11-19T07:24:45;11.27;;;10.27;;
7813;SDS011;3952;48.364;16.022;2023-11-19T07:27:12;11.20;;;10.10;;
7813;SDS011;3952;48.364;16.022;2023-11-19T07:29:40;10.50;;;9.63;;
7813;SDS011;3952;48.364;16.022;2023-11-19T07:32:10;11.20;;;10.13;;
7813;SDS011;3952;48.364;16.022;2023-11-19T07:34:38;10.17;;;9.37;;
7813;SDS011;3952;48.364;16.022;2023-11-19T07:37:06;11.13;;;10.23;;
7813;SDS011;3952;48.364;16.022;2023-11-19T07:39:34;10.87;;;9.97;;
7813;SDS011;3952;48.364;16.022;2023-11-19T07:42:06;10.67;;;9.77;;
7813;SDS011;3952;48.364;16.022;2023-11-19T07:44:34;11.20;;;10.27;;
7813;SDS011;3952;48.364;16.022;2023-11-19T07:47:01;12.47;;;11.37;;
7813;SDS011;3952;48.364;16.022;2023-11-19T07:49:29;12.43;;;11.23;;
7813;SDS011;3952;48.364;16.022;2023-11-19T07:51:57;12.23;;;11.13;;
7813;SDS011;3952;48.364;16.022;2023-11-19T07:54:24;12.50;;;11.37;;
7813;SDS011;3952;48.364;16.022;2023-11-19T07:56:53;11.97;;;10.93;;
7813;SDS011;3952;48.364;16.022;2023-11-19T07:59:20;12.37;;;11.27;;
7813;SDS011;3952;48.364;16.022;2023-11-19T08:01:47;11.80;;;10.73;;
7813;SDS011;3952;48.364;16.022;2023-11-19T08:04:14;13.63;;;12.43;;
7813;SDS011;3952;48.364;16.022;2023-11-19T08:06:42;13.47;;;12.17;;
7813;SDS011;3952;48.364;16.022;2023-11-19T08:09:10;13.23;;;11.93;;
7813;SDS011;3952;48.364;16.022;2023-11-19T08:11:39;11.83;;;10.83;;
7813;SDS011;3952;48.364;16.022;2023-11-19T08:14:08;16.03;;;12.53;;
7813;SDS011;3952;48.364;16.022;2023-11-19T08:16:35;13.13;;;11.83;;
7813;SDS011;3952;48.364;16.022;2023-11-19T08:19:03;12.80;;;11.60;;
7813;SDS011;3952;48.364;16.022;2023-11-19T08:21:30;11.83;;;10.67;;
7813;SDS011;3952;48.364;16.022;2023-11-19T08:23:57;13.23;;;10.90;;
7813;SDS011;3952;48.364;16.022;2023-11-19T08:26:24;15.37;;;11.57;;
7813;SDS011;3952;48.364;16.022;2023-11-19T08:28:51;16.47;;;12.23;;
7813;SDS011;3952;48.364;16.022;2023-11-19T08:31:20;13.47;;;12.07;;
7813;SDS011;3952;48.364;16.022;2023-11-19T08:33:47;11.50;;;10.50;;
7813;SDS011;3952;48.364;16.022;2023-11-19T08:36:17;17.50;;;12.87;;
7813;SDS011;3952;48.364;16.022;2023-11-19T08:38:45;13.17;;;11.87;;
7813;SDS011;3952;48.364;16.022;2023-11-19T08:41:13;12.07;;;10.87;;
7813;SDS011;3952;48.364;16.022;2023-11-19T08:43:43;15.10;;;12.83;;
7813;SDS011;3952;48.364;16.022;2023-11-19T08:46:10;13.67;;;12.17;;
7813;SDS011;3952;48.364;16.022;2023-11-19T08:48:38;13.03;;;11.80;;
7813;SDS011;3952;48.364;16.022;2023-11-19T08:51:06;13.33;;;12.07;;
7813;SDS011;3952;48.364;16.022;2023-11-19T08:53:33;12.10;;;10.90;;
7813;SDS011;3952;48.364;16.022;2023-11-19T08:56:00;14.20;;;11.67;;
7813;SDS011;3952;48.364;16.022;2023-11-19T08:58:28;12.33;;;9.43;;
7813;SDS011;3952;48.364;16.022;2023-11-19T09:00:55;10.70;;;9.80;;
7813;SDS011;3952;48.364;16.022;2023-11-19T09:03:23;10.17;;;9.40;;
7813;SDS011;3952;48.364;16.022;2023-11-19T09:05:53;9.83;;;9.07;;
7813;SDS011;3952;48.364;16.022;2023-11-19T09:08:20;9.87;;;9.03;;
7813;SDS011;3952;48.364;16.022;2023-11-19T09:10:47;10.00;;;9.10;;
7813;SDS011;3952;48.364;16.022;2023-11-19T09:13:15;10.37;;;9.40;;
7813;SDS011;3952;48.364;16.022;2023-11-19T09:15:42;10.73;;;9.80;;
7813;SDS011;3952;48.364;16.022;2023-11-19T09:18:09;11.20;;;10.13;;
7813;SDS011;3952;48.364;16.022;2023-11-19T09:20:36;13.03;;;11.70;;
7813;SDS011;3952;48.364;16.022;2023-11-19T09:23:05;13.17;;;12.07;;
7813;SDS011;3952;48.364;16.022;2023-11-19T09:25:34;12.63;;;11.33;;
7813;SDS011;3952;48.364;16.022;2023-11-19T09:28:01;14.03;;;12.60;;
7813;SDS011;3952;48.364;16.022;2023-11-19T09:30:28;11.40;;;10.47;;
7813;SDS011;3952;48.364;16.022;2023-11-19T09:32:58;12.27;;;11.13;;
7813;SDS011;3952;48.364;16.022;2023-11-19T09:35:26;10.23;;;9.33;;
7813;SDS011;3952;48.364;16.022;2023-11-19T09:37:53;10.50;;;9.60;;
7813;SDS011;3952;48.364;16.022;2023-11-19T09:40:21;10.97;;;10.13;;
7813;SDS011;3952;48.364;16.022;2023-11-19T09:42:49;11.10;;;10.10;;
7813;SDS011;3952;48.364;16.022;2023-11-19T09:45:16;10.17;;;9.37;;
7813;SDS011;3952;48.364;16.022;2023-11-19T09:47:44;9.67;;;8.97;;
7813;SDS011;3952;48.364;16.022;2023-11-19T09:50:14;8.63;;;8.03;;
7813;SDS011;3952;48.364;16.022;2023-11-19T09:52:43;9.07;;;8.37;;
7813;SDS011;3952;48.364;16.022;2023-11-19T09:55:11;8.87;;;8.27;;
7813;SDS011;3952;48.364;16.022;2023-11-19T09:57:40;8.10;;;7.50;;
7813;SDS011;3952;48.364;16.022;2023-11-19T10:00:09;8.70;;;8.10;;
7813;SDS011;3952;48.364;16.022;2023-11-19T10:02:38;7.83;;;7.33;;
7813;SDS011;3952;48.364;16.022;2023-11-19T10:05:07;8.57;;;7.87;;
7813;SDS011;3952;48.364;16.022;2023-11-19T10:07:35;8.07;;;7.47;;
7813;SDS011;3952;48.364;16.022;2023-11-19T10:10:04;7.60;;;7.10;;
7813;SDS011;3952;48.364;16.022;2023-11-19T10:12:32;8.07;;;7.33;;
7813;SDS011;3952;48.364;16.022;2023-11-19T10:15:01;7.63;;;7.13;;
7813;SDS011;3952;48.364;16.022;2023-11-19T10:17:29;7.33;;;6.80;;
7813;SDS011;3952;48.364;16.022;2023-11-19T10:19:59;7.40;;;6.80;;
7813;SDS011;3952;48.364;16.022;2023-11-19T10:22:27;7.53;;;7.03;;
7813;SDS011;3952;48.364;16.022;2023-11-19T10:24:55;7.83;;;7.30;;
7813;SDS011;3952;48.364;16.022;2023-11-19T10:27:23;6.90;;;6.50;;
7813;SDS011;3952;48.364;16.022;2023-11-19T10:29:51;7.53;;;7.03;;
7813;SDS011;3952;48.364;16.022;2023-11-19T10:32:20;7.00;;;6.50;;
7813;SDS011;3952;48.364;16.022;2023-11-19T10:34:47;7.87;;;7.17;;
7813;SDS011;3952;48.364;16.022;2023-11-19T10:37:27;7.27;;;6.83;;
7813;SDS011;3952;48.364;16.022;2023-11-19T10:39:57;7.03;;;6.53;;
7813;SDS011;3952;48.364;16.022;2023-11-19T10:42:24;8.10;;;7.40;;
7813;SDS011;3952;48.364;16.022;2023-11-19T10:44:51;6.93;;;6.53;;
7813;SDS011;3952;48.364;16.022;2023-11-19T10:47:20;7.00;;;6.57;;
7813;SDS011;3952;48.364;16.022;2023-11-19T10:49:49;6.73;;;6.23;;
7813;SDS011;3952;48.364;16.022;2023-11-19T10:52:18;6.83;;;6.43;;
7813;SDS011;3952;48.364;16.022;2023-11-19T10:54:48;6.47;;;6.07;;
7813;SDS011;3952;48.364;16.022;2023-11-19T10:57:19;6.07;;;5.67;;
7813;SDS011;3952;48.364;16.022;2023-11-19T10:59:49;6.70;;;6.20;;
7813;SDS011;3952;48.364;16.022;2023-11-19T11:02:21;5.60;;;5.30;;
7813;SDS011;3952;48.364;16.022;2023-11-19T11:04:52;5.87;;;5.47;;
7813;SDS011;3952;48.364;16.022;2023-11-19T11:07:21;5.07;;;4.77;;
7813;SDS011;3952;48.364;16.022;2023-11-19T11:09:51;5.17;;;4.87;;
7813;SDS011;3952;48.364;16.022;2023-11-19T11:12:20;4.83;;;4.53;;
7813;SDS011;3952;48.364;16.022;2023-11-19T11:14:49;6.83;;;6.33;;
7813;SDS011;3952;48.364;16.022;2023-11-19T11:17:19;6.23;;;5.83;;
7813;SDS011;3952;48.364;16.022;2023-11-19T11:19:50;5.50;;;5.10;;
7813;SDS011;3952;48.364;16.022;2023-11-19T11:22:17;5.63;;;5.30;;
7813;SDS011;3952;48.364;16.022;2023-11-19T11:24:54;5.57;;;5.17;;
7813;SDS011;3952;48.364;16.022;2023-11-19T11:30:34;4.63;;;4.33;;
7813;SDS011;3952;48.364;16.022;2023-11-19T11:33:19;4.80;;;4.50;;
7813;SDS011;3952;48.364;16.022;2023-11-19T11:36:00;5.67;;;5.27;;
7813;SDS011;3952;48.364;16.022;2023-11-19T11:38:37;4.17;;;3.90;;
7813;SDS011;3952;48.364;16.022;2023-11-19T11:41:15;4.20;;;4.00;;
7813;SDS011;3952;48.364;16.022;2023-11-19T11:43:44;3.90;;;3.70;;
7813;SDS011;3952;48.364;16.022;2023-11-19T11:49:18;4.03;;;3.63;;
7813;SDS011;3952;48.364;16.022;2023-11-19T11:52:00;3.60;;;3.40;;
7813;SDS011;3952;48.364;16.022;2023-11-19T11:54:28;3.80;;;3.60;;
7813;SDS011;3952;48.364;16.022;2023-11-19T11:59:46;3.30;;;3.10;;
7813;SDS011;3952;48.364;16.022;2023-11-19T12:02:14;3.67;;;3.47;;
7813;SDS011;3952;48.364;16.022;2023-11-19T12:04:45;4.30;;;4.00;;
7813;SDS011;3952;48.364;16.022;2023-11-19T12:07:15;4.10;;;3.83;;
7813;SDS011;3952;48.364;16.022;2023-11-19T12:09:46;4.30;;;4.10;;
7813;SDS011;3952;48.364;16.022;2023-11-19T12:12:18;4.80;;;4.50;;
7813;SDS011;3952;48.364;16.022;2023-11-19T12:15:00;4.00;;;3.80;;
7813;SDS011;3952;48.364;16.022;2023-11-19T12:17:42;4.70;;;4.40;;
7813;SDS011;3952;48.364;16.022;2023-11-19T12:20:16;4.77;;;4.47;;
7813;SDS011;3952;48.364;16.022;2023-11-19T12:22:44;4.10;;;3.90;;
7813;SDS011;3952;48.364;16.022;2023-11-19T12:25:13;4.03;;;3.83;;
7813;SDS011;3952;48.364;16.022;2023-11-19T12:27:41;4.90;;;4.50;;
7813;SDS011;3952;48.364;16.022;2023-11-19T12:30:11;4.83;;;4.53;;
7813;SDS011;3952;48.364;16.022;2023-11-19T12:32:39;30.33;;;23.87;;
7813;SDS011;3952;48.364;16.022;2023-11-19T12:35:07;21.50;;;19.27;;
7813;SDS011;3952;48.364;16.022;2023-11-19T12:37:42;8.20;;;7.70;;
7813;SDS011;3952;48.364;16.022;2023-11-19T12:40:11;6.17;;;5.70;;
7813;SDS011;3952;48.364;16.022;2023-11-19T12:42:43;6.00;;;5.40;;
7813;SDS011;3952;48.364;16.022;2023-11-19T12:45:11;5.70;;;5.17;;
7813;SDS011;3952;48.364;16.022;2023-11-19T12:47:38;5.43;;;5.13;;
7813;SDS011;3952;48.364;16.022;2023-11-19T12:50:07;6.83;;;6.33;;
7813;SDS011;3952;48.364;16.022;2023-11-19T12:52:34;8.30;;;7.80;;
7813;SDS011;3952;48.364;16.022;2023-11-19T12:55:04;9.93;;;9.27;;
7813;SDS011;3952;48.364;16.022;2023-11-19T12:57:35;8.73;;;8.03;;
7813;SDS011;3952;48.364;16.022;2023-11-19T13:00:06;10.40;;;9.70;;
7813;SDS011;3952;48.364;16.022;2023-11-19T13:02:46;8.47;;;7.97;;
7813;SDS011;3952;48.364;16.022;2023-11-19T13:05:24;5.77;;;5.43;;
7813;SDS011;3952;48.364;16.022;2023-11-19T13:08:02;6.67;;;6.17;;
7813;SDS011;3952;48.364;16.022;2023-11-19T13:10:31;5.83;;;5.43;;
7813;SDS011;3952;48.364;16.022;2023-11-19T13:13:03;5.93;;;5.57;;
7813;SDS011;3952;48.364;16.022;2023-11-19T13:15:31;6.00;;;5.60;;
7813;SDS011;3952;48.364;16.022;2023-11-19T13:17:59;6.13;;;5.73;;
7813;SDS011;3952;48.364;16.022;2023-11-19T13:20:26;6.80;;;6.30;;
7813;SDS011;3952;48.364;16.022;2023-11-19T13:22:54;7.67;;;7.20;;
7813;SDS011;3952;48.364;16.022;2023-11-19T13:25:22;7.60;;;7.03;;
7813;SDS011;3952;48.364;16.022;2023-11-19T13:27:51;7.97;;;7.13;;
7813;SDS011;3952;48.364;16.022;2023-11-19T13:30:19;6.90;;;6.47;;
7813;SDS011;3952;48.364;16.022;2023-11-19T13:32:47;7.17;;;6.67;;
7813;SDS011;3952;48.364;16.022;2023-11-19T13:35:14;6.97;;;6.47;;
7813;SDS011;3952;48.364;16.022;2023-11-19T13:37:42;6.30;;;5.90;;
7813;SDS011;3952;48.364;16.022;2023-11-19T13:40:10;7.47;;;6.93;;
7813;SDS011;3952;48.364;16.022;2023-11-19T13:42:39;12.77;;;11.77;;
7813;SDS011;3952;48.364;16.022;2023-11-19T13:45:09;8.87;;;8.27;;
7813;SDS011;3952;48.364;16.022;2023-11-19T13:47:40;7.13;;;6.53;;
7813;SDS011;3952;48.364;16.022;2023-11-19T13:50:08;7.17;;;6.77;;
7813;SDS011;3952;48.364;16.022;2023-11-19T13:52:37;7.50;;;7.00;;
7813;SDS011;3952;48.364;16.022;2023-11-19T13:55:06;7.27;;;6.87;;
7813;SDS011;3952;48.364;16.022;2023-11-19T13:57:34;7.57;;;7.17;;
7813;SDS011;3952;48.364;16.022;2023-11-19T14:00:01;6.80;;;6.30;;
7813;SDS011;3952;48.364;16.022;2023-11-19T14:02:32;7.47;;;6.87;;
7813;SDS011;3952;48.364;16.022;2023-11-19T14:05:00;7.57;;;7.07;;
7813;SDS011;3952;48.364;16.022;2023-11-19T14:07:27;6.97;;;6.57;;
7813;SDS011;3952;48.364;16.022;2023-11-19T14:09:55;6.80;;;6.40;;
7813;SDS011;3952;48.364;16.022;2023-11-19T14:12:23;6.93;;;6.37;;
7813;SDS011;3952;48.364;16.022;2023-11-19T14:14:50;8.57;;;8.07;;
7813;SDS011;3952;48.364;16.022;2023-11-19T14:17:17;6.90;;;6.30;;
7813;SDS011;3952;48.364;16.022;2023-11-19T14:19:46;4.23;;;3.90;;
7813;SDS011;3952;48.364;16.022;2023-11-19T14:22:13;4.00;;;3.80;;
7813;SDS011;3952;48.364;16.022;2023-11-19T14:24:40;4.67;;;4.37;;
7813;SDS011;3952;48.364;16.022;2023-11-19T14:27:08;7.70;;;7.20;;
7813;SDS011;3952;48.364;16.022;2023-11-19T14:29:35;7.33;;;6.83;;
7813;SDS011;3952;48.364;16.022;2023-11-19T14:32:03;5.10;;;4.90;;
7813;SDS011;3952;48.364;16.022;2023-11-19T14:34:30;4.17;;;3.90;;
7813;SDS011;3952;48.364;16.022;2023-11-19T14:36:59;3.90;;;3.60;;
7813;SDS011;3952;48.364;16.022;2023-11-19T14:39:27;2.77;;;2.67;;
7813;SDS011;3952;48.364;16.022;2023-11-19T14:41:56;2.33;;;2.13;;
7813;SDS011;3952;48.364;16.022;2023-11-19T14:44:26;2.07;;;1.97;;
7813;SDS011;3952;48.364;16.022;2023-11-19T14:46:54;2.10;;;2.00;;
7813;SDS011;3952;48.364;16.022;2023-11-19T14:49:22;2.20;;;2.10;;
7813;SDS011;3952;48.364;16.022;2023-11-19T14:51:50;2.53;;;2.43;;
7813;SDS011;3952;48.364;16.022;2023-11-19T14:54:19;2.40;;;2.20;;
7813;SDS011;3952;48.364;16.022;2023-11-19T14:56:46;2.73;;;2.60;;
7813;SDS011;3952;48.364;16.022;2023-11-19T14:59:13;2.27;;;2.17;;
7813;SDS011;3952;48.364;16.022;2023-11-19T15:01:40;2.50;;;2.40;;
7813;SDS011;3952;48.364;16.022;2023-11-19T15:04:07;2.60;;;2.50;;
7813;SDS011;3952;48.364;16.022;2023-11-19T15:06:35;2.63;;;2.43;;